sensor_id;sensor_type;location;lat;lon;timestamp;pressure;altitude;pressure_sealevel;temperature;humidity
9839;BME280;4958;48.150;11.506;2023-05-23T00:01:02;95297.53;;;20.86;61.97
9839;BME280;4958;48.150;11.506;2023-05-23T00:03:30;95289.84;;;20.74;62.71
9839;BME280;4958;48.150;11.506;2023-05-23T00:05:57;95292.47;;;20.79;61.95
9839;BME280;4958;48.150;11.506;2023-05-23T00:08:24;95291.44;;;20.80;62.47
9839;BME280;4958;48.150;11.506;2023-05-23T00:10:53;95295.38;;;20.78;62.66
9839;BME280;4958;48.150;11.506;2023-05-23T00:13:21;95294.31;;;20.79;62.46
9839;BME280;4958;48.150;11.506;2023-05-23T00:15:47;95290.63;;;20.75;62.96
9839;BME280;4958;48.150;11.506;2023-05-23T00:18:17;95296.94;;;20.79;62.48
9839;BME280;4958;48.150;11.506;2023-05-23T00:20:44;95297.47;;;20.81;62.30
9839;BME280;4958;48.150;11.506;2023-05-23T00:23:11;95298.72;;;20.73;62.56
9839;BME280;4958;48.150;11.506;2023-05-23T00:25:46;95293.97;;;20.70;62.42
9839;BME280;4958;48.150;11.506;2023-05-23T00:28:17;95292.59;;;20.62;62.66
9839;BME280;4958;48.150;11.506;2023-05-23T00:30:45;95289.41;;;20.60;62.75
9839;BME280;4958;48.150;11.506;2023-05-23T00:33:15;95286.56;;;20.62;62.15
9839;BME280;4958;48.150;11.506;2023-05-23T00:35:41;95300.66;;;20.61;62.94
9839;BME280;4958;48.150;11.506;2023-05-23T00:38:08;95300.78;;;20.71;62.37
9839;BME280;4958;48.150;11.506;2023-05-23T00:40:35;95292.69;;;20.73;62.16
9839;BME280;4958;48.150;11.506;2023-05-23T00:43:02;95291.38;;;20.70;61.99
9839;BME280;4958;48.150;11.506;2023-05-23T00:45:32;95292.88;;;20.66;61.63
9839;BME280;4958;48.150;11.506;2023-05-23T00:48:00;95292.59;;;20.62;62.17
9839;BME280;4958;48.150;11.506;2023-05-23T00:50:28;95289.72;;;20.64;61.94
9839;BME280;4958;48.150;11.506;2023-05-23T00:52:56;95295.25;;;20.67;61.55
9839;BME280;4958;48.150;11.506;2023-05-23T00:55:24;95297.13;;;20.72;61.51
9839;BME280;4958;48.150;11.506;2023-05-23T00:57:51;95292.88;;;20.66;62.02
9839;BME280;4958;48.150;11.506;2023-05-23T01:00:20;95296.84;;;20.68;62.13
9839;BME280;4958;48.150;11.506;2023-05-23T01:02:49;95290.03;;;20.67;61.65
9839;BME280;4958;48.150;11.506;2023-05-23T01:05:18;95294.53;;;20.72;61.51
9839;BME280;4958;48.150;11.506;2023-05-23T01:07:47;95291.66;;;20.74;61.64
9839;BME280;4958;48.150;11.506;2023-05-23T01:10:14;95297.63;;;20.69;61.46
9839;BME280;4958;48.150;11.506;2023-05-23T01:12:48;95301.28;;;20.68;61.74
9839;BME280;4958;48.150;11.506;2023-05-23T01:15:17;95300.44;;;20.62;61.83
9839;BME280;4958;48.150;11.506;2023-05-23T01:17:49;95299.41;;;20.63;61.46
9839;BME280;4958;48.150;11.506;2023-05-23T01:20:21;95304.38;;;20.65;61.58
9839;BME280;4958;48.150;11.506;2023-05-23T01:23:04;95317.41;;;20.60;61.68
9839;BME280;4958;48.150;11.506;2023-05-23T01:25:53;95311.34;;;20.54;61.62
9839;BME280;4958;48.150;11.506;2023-05-23T01:28:30;95302.16;;;20.52;62.02
9839;BME280;4958;48.150;11.506;2023-05-23T01:30:57;95305.56;;;20.52;61.63
9839;BME280;4958;48.150;11.506;2023-05-23T01:33:27;95309.16;;;20.46;61.75
9839;BME280;4958;48.150;11.506;2023-05-23T01:42:27;95310.75;;;20.47;61.67
9839;BME280;4958;48.150;11.506;2023-05-23T01:44:55;95315.97;;;20.47;61.58
9839;BME280;4958;48.150;11.506;2023-05-23T01:47:24;95313.84;;;20.44;61.66
9839;BME280;4958;48.150;11.506;2023-05-23T01:49:52;95324.06;;;20.46;61.64
9839;BME280;4958;48.150;11.506;2023-05-23T01:52:20;95326.38;;;20.42;61.92
9839;BME280;4958;48.150;11.506;2023-05-23T01:54:48;95330.28;;;20.40;61.99
9839;BME280;4958;48.150;11.506;2023-05-23T01:57:16;95324.41;;;20.32;61.98
9839;BME280;4958;48.150;11.506;2023-05-23T01:59:44;95334.25;;;20.25;62.59
9839;BME280;4958;48.150;11.506;2023-05-23T02:02:12;95334.47;;;20.24;62.78
9839;BME280;4958;48.150;11.506;2023-05-23T02:04:39;95331.63;;;20.25;62.34
9839;BME280;4958;48.150;11.506;2023-05-23T02:07:05;95328.41;;;20.18;63.08
9839;BME280;4958;48.150;11.506;2023-05-23T02:09:32;95337.84;;;20.19;62.52
9839;BME280;4958;48.150;11.506;2023-05-23T02:11:58;95326.09;;;20.22;62.70
9839;BME280;4958;48.150;11.506;2023-05-23T02:14:25;95331.59;;;20.20;62.91
9839;BME280;4958;48.150;11.506;2023-05-23T02:16:52;95337.06;;;20.19;63.11
9839;BME280;4958;48.150;11.506;2023-05-23T02:19:20;95337.06;;;20.19;63.30
9839;BME280;4958;48.150;11.506;2023-05-23T02:21:47;95342.28;;;20.19;63.31
9839;BME280;4958;48.150;11.506;2023-05-23T02:24:16;95337.06;;;20.19;63.42
9839;BME280;4958;48.150;11.506;2023-05-23T02:26:45;95337.56;;;20.21;63.34
9839;BME280;4958;48.150;11.506;2023-05-23T02:29:12;95339.13;;;20.17;63.55
9839;BME280;4958;48.150;11.506;2023-05-23T02:31:38;95346.41;;;20.15;63.57
9839;BME280;4958;48.150;11.506;2023-05-23T02:34:05;95335.41;;;20.13;63.56
9839;BME280;4958;48.150;11.506;2023-05-23T02:36:32;95337.47;;;20.11;63.78
9839;BME280;4958;48.150;11.506;2023-05-23T02:39:01;95345.72;;;20.02;64.52
9839;BME280;4958;48.150;11.506;2023-05-23T02:41:27;95350.88;;;19.97;64.43
9839;BME280;4958;48.150;11.506;2023-05-23T02:43:54;95346.69;;;19.96;64.49
9839;BME280;4958;48.150;11.506;2023-05-23T02:46:20;95358.16;;;19.95;64.65
9839;BME280;4958;48.150;11.506;2023-05-23T02:48:47;95351.59;;;19.93;64.46
9839;BME280;4958;48.150;11.506;2023-05-23T02:51:13;95345.94;;;19.79;65.37
9839;BME280;4958;48.150;11.506;2023-05-23T02:53:41;95356.38;;;19.79;65.49
9839;BME280;4958;48.150;11.506;2023-05-23T02:56:08;95356.13;;;19.81;65.18
9839;BME280;4958;48.150;11.506;2023-05-23T02:58:35;95347.97;;;19.77;65.60
9839;BME280;4958;48.150;11.506;2023-05-23T03:01:01;95352.41;;;19.77;65.56
9839;BME280;4958;48.150;11.506;2023-05-23T03:03:28;95348.69;;;19.73;65.94
9839;BME280;4958;48.150;11.506;2023-05-23T03:05:55;95354.63;;;19.68;65.94
9839;BME280;4958;48.150;11.506;2023-05-23T03:08:22;95349.63;;;19.66;65.97
9839;BME280;4958;48.150;11.506;2023-05-23T03:10:50;95351.22;;;19.67;66.30
9839;BME280;4958;48.150;11.506;2023-05-23T03:13:17;95358.50;;;19.65;66.65
9839;BME280;4958;48.150;11.506;2023-05-23T03:15:43;95363.13;;;19.58;66.76
9839;BME280;4958;48.150;11.506;2023-05-23T03:18:10;95357.91;;;19.58;66.67
9839;BME280;4958;48.150;11.506;2023-05-23T03:20:37;95360.53;;;19.47;67.10
9839;BME280;4958;48.150;11.506;2023-05-23T03:23:04;95365.75;;;19.47;67.25
9839;BME280;4958;48.150;11.506;2023-05-23T03:25:31;95359.44;;;19.43;67.56
9839;BME280;4958;48.150;11.506;2023-05-23T03:27:59;95361.78;;;19.44;67.72
9839;BME280;4958;48.150;11.506;2023-05-23T03:30:26;95358.88;;;19.41;68.21
9839;BME280;4958;48.150;11.506;2023-05-23T03:32:52;95361.31;;;19.47;67.65
9839;BME280;4958;48.150;11.506;2023-05-23T03:35:19;95369.94;;;19.48;67.67
9839;BME280;4958;48.150;11.506;2023-05-23T03:37:46;95370.19;;;19.46;67.83
9839;BME280;4958;48.150;11.506;2023-05-23T03:40:12;95373.59;;;19.47;68.16
9839;BME280;4958;48.150;11.506;2023-05-23T03:42:39;95368.13;;;19.48;67.96
9839;BME280;4958;48.150;11.506;2023-05-23T03:45:07;95364.81;;;19.36;68.94
9839;BME280;4958;48.150;11.506;2023-05-23T03:47:34;95372.97;;;19.40;68.52
9839;BME280;4958;48.150;11.506;2023-05-23T03:50:00;95370.50;;;19.33;69.11
9839;BME280;4958;48.150;11.506;2023-05-23T03:52:27;95367.81;;;19.28;69.40
9839;BME280;4958;48.150;11.506;2023-05-23T03:54:53;95372.22;;;19.27;69.31
9839;BME280;4958;48.150;11.506;2023-05-23T03:57:20;95371.06;;;19.35;68.70
9839;BME280;4958;48.150;11.506;2023-05-23T03:59:46;95374.47;;;19.36;68.90
9839;BME280;4958;48.150;11.506;2023-05-23T04:02:14;95374.13;;;19.32;69.26
9839;BME280;4958;48.150;11.506;2023-05-23T04:04:41;95367.09;;;19.32;69.65
9839;BME280;4958;48.150;11.506;2023-05-23T04:07:08;95370.97;;;19.30;69.72
9839;BME280;4958;48.150;11.506;2023-05-23T04:09:35;95366.78;;;19.29;69.80
9839;BME280;4958;48.150;11.506;2023-05-23T04:12:01;95372.31;;;19.32;69.75
9839;BME280;4958;48.150;11.506;2023-05-23T04:14:28;95374.69;;;19.34;70.23
9839;BME280;4958;48.150;11.506;2023-05-23T04:16:57;95384.59;;;19.32;70.09
9839;BME280;4958;48.150;11.506;2023-05-23T04:19:29;95382.63;;;19.39;70.02
9839;BME280;4958;48.150;11.506;2023-05-23T04:21:56;95392.66;;;19.30;70.82
9839;BME280;4958;48.150;11.506;2023-05-23T04:24:22;95389.81;;;19.32;71.19
9839;BME280;4958;48.150;11.506;2023-05-23T04:26:49;95397.16;;;19.35;70.79
9839;BME280;4958;48.150;11.506;2023-05-23T04:29:15;95394.94;;;19.44;70.44
9839;BME280;4958;48.150;11.506;2023-05-23T04:31:44;95398.91;;;19.46;70.43
9839;BME280;4958;48.150;11.506;2023-05-23T04:34:10;95399.25;;;19.50;70.23
9839;BME280;4958;48.150;11.506;2023-05-23T04:36:38;95403.84;;;19.43;71.04
9839;BME280;4958;48.150;11.506;2023-05-23T04:39:08;95404.88;;;19.42;71.03
9839;BME280;4958;48.150;11.506;2023-05-23T04:41:35;95405.66;;;19.42;70.99
9839;BME280;4958;48.150;11.506;2023-05-23T04:44:02;95400.66;;;19.41;71.28
9839;BME280;4958;48.150;11.506;2023-05-23T04:46:30;95405.50;;;19.49;70.74
9839;BME280;4958;48.150;11.506;2023-05-23T04:48:56;95395.03;;;19.49;71.17
9839;BME280;4958;48.150;11.506;2023-05-23T04:51:24;95399.00;;;19.35;71.83
9839;BME280;4958;48.150;11.506;2023-05-23T04:53:52;95407.53;;;19.30;72.44
9839;BME280;4958;48.150;11.506;2023-05-23T04:56:19;95406.34;;;19.38;71.94
9839;BME280;4958;48.150;11.506;2023-05-23T04:58:46;95409.59;;;19.45;72.31
9839;BME280;4958;48.150;11.506;2023-05-23T05:01:15;95418.66;;;19.54;71.86
9839;BME280;4958;48.150;11.506;2023-05-23T05:03:41;95411.72;;;19.59;71.75
9839;BME280;4958;48.150;11.506;2023-05-23T05:06:14;95415.69;;;19.62;72.04
9839;BME280;4958;48.150;11.506;2023-05-23T05:08:40;95412.41;;;19.55;71.83
9839;BME280;4958;48.150;11.506;2023-05-23T05:11:09;95421.59;;;19.57;72.26
9839;BME280;4958;48.150;11.506;2023-05-23T05:13:35;95423.81;;;19.65;71.84
9839;BME280;4958;48.150;11.506;2023-05-23T05:16:02;95410.19;;;19.63;72.26
9839;BME280;4958;48.150;11.506;2023-05-23T05:18:29;95422.78;;;19.66;72.51
9839;BME280;4958;48.150;11.506;2023-05-23T05:20:55;95420.63;;;19.63;72.54
9839;BME280;4958;48.150;11.506;2023-05-23T05:23:24;95417.09;;;19.70;73.05
9839;BME280;4958;48.150;11.506;2023-05-23T05:25:53;95410.69;;;19.77;72.54
9839;BME280;4958;48.150;11.506;2023-05-23T05:28:21;95413.06;;;19.79;72.76
9839;BME280;4958;48.150;11.506;2023-05-23T05:30:48;95412.88;;;19.85;72.21
9839;BME280;4958;48.150;11.506;2023-05-23T05:33:18;95412.66;;;19.87;72.20
9839;BME280;4958;48.150;11.506;2023-05-23T05:35:45;95414.00;;;19.89;72.25
9839;BME280;4958;48.150;11.506;2023-05-23T05:38:11;95410.34;;;19.90;72.34
9839;BME280;4958;48.150;11.506;2023-05-23T05:40:40;95409.56;;;19.90;72.98
9839;BME280;4958;48.150;11.506;2023-05-23T05:43:09;95414.09;;;19.94;72.55
9839;BME280;4958;48.150;11.506;2023-05-23T05:45:39;95414.38;;;20.15;71.86
9839;BME280;4958;48.150;11.506;2023-05-23T05:48:06;95421.25;;;20.21;71.98
9839;BME280;4958;48.150;11.506;2023-05-23T05:50:33;95432.25;;;20.23;72.20
9839;BME280;4958;48.150;11.506;2023-05-23T05:52:59;95422.81;;;20.22;71.37
9839;BME280;4958;48.150;11.506;2023-05-23T05:55:38;95423.09;;;20.20;71.75
9839;BME280;4958;48.150;11.506;2023-05-23T05:58:08;95429.78;;;20.33;71.56
9839;BME280;4958;48.150;11.506;2023-05-23T06:00:34;95429.56;;;20.34;70.93
9839;BME280;4958;48.150;11.506;2023-05-23T06:03:09;95435.75;;;20.28;71.16
9839;BME280;4958;48.150;11.506;2023-05-23T06:05:36;95432.16;;;20.34;70.90
9839;BME280;4958;48.150;11.506;2023-05-23T06:08:04;95436.94;;;20.38;71.28
9839;BME280;4958;48.150;11.506;2023-05-23T06:10:30;95435.50;;;20.47;70.71
9839;BME280;4958;48.150;11.506;2023-05-23T06:12:57;95439.94;;;20.29;71.03
9839;BME280;4958;48.150;11.506;2023-05-23T06:15:25;95434.72;;;20.29;71.50
9839;BME280;4958;48.150;11.506;2023-05-23T06:17:51;95440.50;;;20.31;71.29
9839;BME280;4958;48.150;11.506;2023-05-23T06:20:22;95440.97;;;20.45;71.12
9839;BME280;4958;48.150;11.506;2023-05-23T06:22:48;95435.31;;;20.53;70.97
9839;BME280;4958;48.150;11.506;2023-05-23T06:25:15;95439.28;;;20.56;70.97
9839;BME280;4958;48.150;11.506;2023-05-23T06:27:41;95443.53;;;20.62;70.54
9839;BME280;4958;48.150;11.506;2023-05-23T06:30:09;95436.94;;;20.59;70.54
9839;BME280;4958;48.150;11.506;2023-05-23T06:32:36;95436.28;;;20.47;71.01
9839;BME280;4958;48.150;11.506;2023-05-23T06:35:04;95441.91;;;20.56;71.54
9839;BME280;4958;48.150;11.506;2023-05-23T06:37:32;95439.78;;;20.75;71.43
9839;BME280;4958;48.150;11.506;2023-05-23T06:39:58;95442.72;;;20.78;70.72
9839;BME280;4958;48.150;11.506;2023-05-23T06:42:25;95444.47;;;20.73;70.77
9839;BME280;4958;48.150;11.506;2023-05-23T06:44:52;95440.91;;;20.84;70.61
9839;BME280;4958;48.150;11.506;2023-05-23T06:47:18;95454.41;;;20.97;70.49
9839;BME280;4958;48.150;11.506;2023-05-23T06:49:48;95451.28;;;20.95;70.32
9839;BME280;4958;48.150;11.506;2023-05-23T06:52:20;95452.59;;;20.98;70.42
9839;BME280;4958;48.150;11.506;2023-05-23T06:54:48;95450.59;;;21.05;70.09
9839;BME280;4958;48.150;11.506;2023-05-23T06:57:14;95449.13;;;21.14;70.19
9839;BME280;4958;48.150;11.506;2023-05-23T06:59:41;95452.38;;;21.21;70.02
9839;BME280;4958;48.150;11.506;2023-05-23T07:02:13;95453.81;;;21.34;70.15
9839;BME280;4958;48.150;11.506;2023-05-23T07:04:39;95457.75;;;21.36;70.30
9839;BME280;4958;48.150;11.506;2023-05-23T07:07:06;95454.50;;;21.51;68.57
9839;BME280;4958;48.150;11.506;2023-05-23T07:09:32;95453.22;;;21.54;70.38
9839;BME280;4958;48.150;11.506;2023-05-23T07:12:00;95456.13;;;21.57;69.41
9839;BME280;4958;48.150;11.506;2023-05-23T07:14:26;95459.03;;;21.61;68.25
9839;BME280;4958;48.150;11.506;2023-05-23T07:16:53;95454.03;;;21.59;68.33
9839;BME280;4958;48.150;11.506;2023-05-23T07:19:21;95467.16;;;21.59;68.29
9839;BME280;4958;48.150;11.506;2023-05-23T07:21:48;95468.41;;;21.52;68.07
9839;BME280;4958;48.150;11.506;2023-05-23T07:24:14;95464.06;;;21.35;69.76
9839;BME280;4958;48.150;11.506;2023-05-23T07:26:41;95474.25;;;21.37;70.34
9839;BME280;4958;48.150;11.506;2023-05-23T07:29:09;95479.38;;;21.49;70.33
9839;BME280;4958;48.150;11.506;2023-05-23T07:31:35;95468.09;;;21.48;70.32
9839;BME280;4958;48.150;11.506;2023-05-23T07:34:02;95475.72;;;21.50;69.10
9839;BME280;4958;48.150;11.506;2023-05-23T07:36:29;95472.75;;;21.41;68.76
9839;BME280;4958;48.150;11.506;2023-05-23T07:38:58;95467.75;;;21.40;68.69
9839;BME280;4958;48.150;11.506;2023-05-23T07:41:24;95470.66;;;21.43;68.86
9839;BME280;4958;48.150;11.506;2023-05-23T07:43:51;95473.78;;;21.40;68.94
9839;BME280;4958;48.150;11.506;2023-05-23T07:46:20;95461.72;;;21.39;68.82
9839;BME280;4958;48.150;11.506;2023-05-23T07:48:53;95476.22;;;21.47;68.60
9839;BME280;4958;48.150;11.506;2023-05-23T07:51:21;95478.28;;;21.45;68.57
9839;BME280;4958;48.150;11.506;2023-05-23T07:53:47;95481.38;;;21.42;68.20
9839;BME280;4958;48.150;11.506;2023-05-23T07:56:14;95478.22;;;21.18;70.09
9839;BME280;4958;48.150;11.506;2023-05-23T07:58:41;95477.97;;;21.19;69.71
9839;BME280;4958;48.150;11.506;2023-05-23T08:01:07;95470.88;;;21.15;70.17
9839;BME280;4958;48.150;11.506;2023-05-23T08:03:42;95478.44;;;21.11;70.91
9839;BME280;4958;48.150;11.506;2023-05-23T08:06:09;95484.22;;;21.13;70.30
9839;BME280;4958;48.150;11.506;2023-05-23T08:08:35;95488.66;;;21.13;71.36
9839;BME280;4958;48.150;11.506;2023-05-23T08:11:03;95488.69;;;21.18;71.78
9839;BME280;4958;48.150;11.506;2023-05-23T08:13:29;95489.72;;;21.17;70.57
9839;BME280;4958;48.150;11.506;2023-05-23T08:15:59;95486.06;;;21.18;70.44
9839;BME280;4958;48.150;11.506;2023-05-23T08:18:25;95488.13;;;21.32;69.50
9839;BME280;4958;48.150;11.506;2023-05-23T08:20:54;95488.13;;;21.32;69.43
9839;BME280;4958;48.150;11.506;2023-05-23T08:23:20;95492.19;;;21.23;69.70
9839;BME280;4958;48.150;11.506;2023-05-23T08:25:47;95494.25;;;21.21;69.02
9839;BME280;4958;48.150;11.506;2023-05-23T08:28:14;95494.13;;;21.11;69.88
9839;BME280;4958;48.150;11.506;2023-05-23T08:30:40;95496.19;;;21.09;69.72
9839;BME280;4958;48.150;11.506;2023-05-23T08:33:09;95491.81;;;21.15;69.59
9839;BME280;4958;48.150;11.506;2023-05-23T08:35:36;95495.75;;;21.17;69.54
9839;BME280;4958;48.150;11.506;2023-05-23T08:38:05;95501.88;;;21.23;68.83
9839;BME280;4958;48.150;11.506;2023-05-23T08:40:33;95504.50;;;21.23;69.43
9839;BME280;4958;48.150;11.506;2023-05-23T08:43:01;95501.47;;;21.31;68.97
9839;BME280;4958;48.150;11.506;2023-05-23T08:45:27;95503.06;;;21.37;68.63
9839;BME280;4958;48.150;11.506;2023-05-23T08:47:54;95504.38;;;21.34;69.33
9839;BME280;4958;48.150;11.506;2023-05-23T08:50:22;95499.09;;;21.29;68.50
9839;BME280;4958;48.150;11.506;2023-05-23T08:52:53;95503.84;;;21.32;68.40
9839;BME280;4958;48.150;11.506;2023-05-23T08:55:25;95511.00;;;21.42;67.98
9839;BME280;4958;48.150;11.506;2023-05-23T08:57:52;95509.72;;;21.45;67.92
9839;BME280;4958;48.150;11.506;2023-05-23T09:00:21;95505.03;;;21.47;66.97
9839;BME280;4958;48.150;11.506;2023-05-23T09:02:51;95507.88;;;21.45;67.70
9839;BME280;4958;48.150;11.506;2023-05-23T09:05:18;95508.44;;;21.47;67.27
9839;BME280;4958;48.150;11.506;2023-05-23T09:07:46;95506.84;;;21.46;67.89
9839;BME280;4958;48.150;11.506;2023-05-23T09:10:14;95502.91;;;21.44;68.97
9839;BME280;4958;48.150;11.506;2023-05-23T09:12:43;95512.53;;;21.38;69.67
9839;BME280;4958;48.150;11.506;2023-05-23T09:15:17;95507.00;;;21.34;68.87
9839;BME280;4958;48.150;11.506;2023-05-23T09:17:45;95514.78;;;21.29;68.94
9839;BME280;4958;48.150;11.506;2023-05-23T09:20:13;95515.03;;;21.28;69.33
9839;BME280;4958;48.150;11.506;2023-05-23T09:22:42;95515.03;;;21.28;69.99
9839;BME280;4958;48.150;11.506;2023-05-23T09:25:12;95512.13;;;21.24;69.93
9839;BME280;4958;48.150;11.506;2023-05-23T09:27:43;95511.56;;;21.22;68.98
9839;BME280;4958;48.150;11.506;2023-05-23T09:30:10;95512.19;;;21.29;70.22
9839;BME280;4958;48.150;11.506;2023-05-23T09:32:37;95520.91;;;21.35;69.85
9839;BME280;4958;48.150;11.506;2023-05-23T09:35:09;95515.03;;;21.28;69.85
9839;BME280;4958;48.150;11.506;2023-05-23T09:37:44;95517.91;;;21.26;70.82
9839;BME280;4958;48.150;11.506;2023-05-23T09:40:20;95518.53;;;21.17;69.61
9839;BME280;4958;48.150;11.506;2023-05-23T09:42:50;95523.69;;;21.28;69.48
9839;BME280;4958;48.150;11.506;2023-05-23T09:45:17;95518.78;;;21.37;69.28
9839;BME280;4958;48.150;11.506;2023-05-23T09:47:48;95522.16;;;21.32;68.75
9839;BME280;4958;48.150;11.506;2023-05-23T09:50:14;95518.84;;;21.42;68.45
9839;BME280;4958;48.150;11.506;2023-05-23T09:52:44;95524.47;;;21.51;68.07
9839;BME280;4958;48.150;11.506;2023-05-23T09:55:13;95517.19;;;21.58;68.33
9839;BME280;4958;48.150;11.506;2023-05-23T09:57:45;95520.00;;;21.51;69.65
9839;BME280;4958;48.150;11.506;2023-05-23T10:00:21;95520.94;;;21.40;70.43
9839;BME280;4958;48.150;11.506;2023-05-23T10:03:08;95523.50;;;21.35;70.06
9839;BME280;4958;48.150;11.506;2023-05-23T10:05:40;95527.50;;;21.43;69.65
9839;BME280;4958;48.150;11.506;2023-05-23T10:08:18;95523.31;;;21.42;68.99
9839;BME280;4958;48.150;11.506;2023-05-23T10:14:12;95520.09;;;21.34;69.61
9839;BME280;4958;48.150;11.506;2023-05-23T10:16:48;95517.72;;;21.33;71.08
9839;BME280;4958;48.150;11.506;2023-05-23T10:19:23;95522.66;;;21.29;70.82
9839;BME280;4958;48.150;11.506;2023-05-23T10:21:55;95525.44;;;21.23;70.39
9839;BME280;4958;48.150;11.506;2023-05-23T10:24:24;95518.94;;;21.25;70.27
9839;BME280;4958;48.150;11.506;2023-05-23T10:26:52;95513.06;;;21.18;70.08
9839;BME280;4958;48.150;11.506;2023-05-23T10:29:19;95514.63;;;21.19;69.47
9839;BME280;4958;48.150;11.506;2023-05-23T10:31:48;95515.22;;;21.21;69.80
9839;BME280;4958;48.150;11.506;2023-05-23T10:34:20;95514.22;;;21.06;69.64
9839;BME280;4958;48.150;11.506;2023-05-23T10:36:54;95511.84;;;21.04;69.41
9839;BME280;4958;48.150;11.506;2023-05-23T10:39:30;95509.06;;;21.11;70.37
9839;BME280;4958;48.150;11.506;2023-05-23T10:42:01;95508.06;;;21.38;68.16
9839;BME280;4958;48.150;11.506;2023-05-23T10:44:29;95500.66;;;21.84;67.40
9839;BME280;4958;48.150;11.506;2023-05-23T10:46:58;95500.09;;;22.41;65.33
9839;BME280;4958;48.150;11.506;2023-05-23T10:49:41;95511.47;;;22.57;64.25
9839;BME280;4958;48.150;11.506;2023-05-23T10:52:09;95499.22;;;22.72;64.40
9839;BME280;4958;48.150;11.506;2023-05-23T10:54:41;95507.72;;;22.85;62.41
9839;BME280;4958;48.150;11.506;2023-05-23T10:57:18;95504.63;;;22.98;62.61
9839;BME280;4958;48.150;11.506;2023-05-23T10:59:46;95505.13;;;22.90;61.61
9839;BME280;4958;48.150;11.506;2023-05-23T11:02:15;95510.59;;;22.83;60.87
9839;BME280;4958;48.150;11.506;2023-05-23T11:04:43;95504.69;;;22.61;60.17
9839;BME280;4958;48.150;11.506;2023-05-23T11:07:30;95514.34;;;22.55;60.61
9839;BME280;4958;48.150;11.506;2023-05-23T11:10:08;95513.13;;;22.68;61.06
9839;BME280;4958;48.150;11.506;2023-05-23T11:13:05;95501.34;;;22.70;57.32
9839;BME280;4958;48.150;11.506;2023-05-23T11:15:45;95495.94;;;22.87;57.21
9839;BME280;4958;48.150;11.506;2023-05-23T11:18:19;95496.00;;;23.02;56.86
9839;BME280;4958;48.150;11.506;2023-05-23T11:20:46;95492.19;;;23.40;56.23
9839;BME280;4958;48.150;11.506;2023-05-23T11:26:27;95475.72;;;23.81;56.59
9839;BME280;4958;48.150;11.506;2023-05-23T11:29:15;95478.88;;;24.03;55.57
9839;BME280;4958;48.150;11.506;2023-05-23T11:31:47;95478.34;;;24.11;53.30
9839;BME280;4958;48.150;11.506;2023-05-23T11:34:19;95474.66;;;24.22;53.69
9839;BME280;4958;48.150;11.506;2023-05-23T11:36:54;95469.69;;;24.00;54.14
9839;BME280;4958;48.150;11.506;2023-05-23T11:39:49;95467.53;;;23.67;55.85
9839;BME280;4958;48.150;11.506;2023-05-23T11:42:25;95469.91;;;23.63;56.28
9839;BME280;4958;48.150;11.506;2023-05-23T11:45:08;95462.31;;;23.97;55.98
9839;BME280;4958;48.150;11.506;2023-05-23T11:47:39;95463.09;;;24.23;55.34
9839;BME280;4958;48.150;11.506;2023-05-23T11:50:07;95461.00;;;24.00;54.02
9839;BME280;4958;48.150;11.506;2023-05-23T11:52:38;95462.03;;;23.79;55.37
9839;BME280;4958;48.150;11.506;2023-05-23T11:55:15;95456.78;;;23.63;55.60
9839;BME280;4958;48.150;11.506;2023-05-23T11:57:44;95468.00;;;23.38;57.22
9839;BME280;4958;48.150;11.506;2023-05-23T12:00:26;95465.63;;;23.27;56.18
9839;BME280;4958;48.150;11.506;2023-05-23T12:02:57;95463.19;;;23.05;57.24
9839;BME280;4958;48.150;11.506;2023-05-23T12:05:27;95456.53;;;22.92;57.48
9839;BME280;4958;48.150;11.506;2023-05-23T12:07:54;95462.63;;;23.03;57.85
9839;BME280;4958;48.150;11.506;2023-05-23T12:10:26;95454.13;;;23.58;56.98
9839;BME280;4958;48.150;11.506;2023-05-23T12:12:53;95455.19;;;23.62;57.53
9839;BME280;4958;48.150;11.506;2023-05-23T12:15:25;95445.44;;;23.68;56.28
9839;BME280;4958;48.150;11.506;2023-05-23T12:17:53;95450.19;;;23.56;57.62
9839;BME280;4958;48.150;11.506;2023-05-23T12:20:20;95454.69;;;23.81;55.94
9839;BME280;4958;48.150;11.506;2023-05-23T12:22:49;95448.09;;;24.14;54.93
9839;BME280;4958;48.150;11.506;2023-05-23T12:25:20;95449.34;;;24.62;55.35
9839;BME280;4958;48.150;11.506;2023-05-23T12:27:47;95458.97;;;24.92;53.24
9839;BME280;4958;48.150;11.506;2023-05-23T12:30:14;95454.19;;;25.14;52.36
9839;BME280;4958;48.150;11.506;2023-05-23T12:32:44;95459.44;;;25.19;52.26
9839;BME280;4958;48.150;11.506;2023-05-23T12:35:12;95465.31;;;24.86;52.88
9839;BME280;4958;48.150;11.506;2023-05-23T12:37:39;95465.47;;;24.40;55.13
9839;BME280;4958;48.150;11.506;2023-05-23T12:40:12;95469.91;;;24.09;55.60
9839;BME280;4958;48.150;11.506;2023-05-23T12:42:50;95467.81;;;23.81;56.34
9839;BME280;4958;48.150;11.506;2023-05-23T12:45:21;95461.50;;;23.97;55.53
9839;BME280;4958;48.150;11.506;2023-05-23T12:47:49;95455.72;;;24.30;54.75
9839;BME280;4958;48.150;11.506;2023-05-23T12:50:16;95455.91;;;24.64;54.29
9839;BME280;4958;48.150;11.506;2023-05-23T12:52:42;95464.38;;;24.56;54.67
9839;BME280;4958;48.150;11.506;2023-05-23T12:55:09;95468.84;;;24.56;54.68
9839;BME280;4958;48.150;11.506;2023-05-23T12:57:37;95466.72;;;24.63;53.19
9839;BME280;4958;48.150;11.506;2023-05-23T13:00:08;95460.09;;;24.70;50.85
9839;BME280;4958;48.150;11.506;2023-05-23T13:02:41;95467.50;;;24.63;51.06
9839;BME280;4958;48.150;11.506;2023-05-23T13:05:28;95465.94;;;24.47;51.59
9839;BME280;4958;48.150;11.506;2023-05-23T13:07:54;95469.41;;;24.42;52.23
9839;BME280;4958;48.150;11.506;2023-05-23T13:10:23;95475.97;;;24.30;53.08
9839;BME280;4958;48.150;11.506;2023-05-23T13:12:52;95472.81;;;24.18;53.65
9839;BME280;4958;48.150;11.506;2023-05-23T13:15:19;95468.09;;;24.04;53.05
9839;BME280;4958;48.150;11.506;2023-05-23T13:17:48;95463.09;;;23.98;52.80
9839;BME280;4958;48.150;11.506;2023-05-23T13:20:20;95464.41;;;23.90;54.11
9839;BME280;4958;48.150;11.506;2023-05-23T13:22:48;95457.84;;;23.83;53.23
9839;BME280;4958;48.150;11.506;2023-05-23T13:25:15;95449.69;;;24.04;53.15
9839;BME280;4958;48.150;11.506;2023-05-23T13:27:44;95444.16;;;24.21;52.28
9839;BME280;4958;48.150;11.506;2023-05-23T13:30:13;95453.34;;;24.14;51.53
9839;BME280;4958;48.150;11.506;2023-05-23T13:32:39;95454.41;;;24.02;52.19